createdAt,value
2023-11-01T00:01:04.258Z,100.00
2023-11-01T00:03:32.528Z,100.00
2023-11-01T00:06:00.530Z,100.00
2023-11-01T00:08:28.725Z,100.00
2023-11-01T00:10:57.702Z,100.00
2023-11-01T00:13:25.600Z,100.00
2023-11-01T00:15:53.634Z,100.00
2023-11-01T00:18:21.908Z,100.00
2023-11-01T00:20:49.776Z,100.00
2023-11-01T00:23:16.577Z,100.00
2023-11-01T00:25:44.676Z,100.00
2023-11-01T00:28:12.768Z,100.00
2023-11-01T00:30:40.820Z,100.00
2023-11-01T00:33:07.590Z,100.00
2023-11-01T00:35:35.562Z,100.00
2023-11-01T00:38:07.043Z,100.00
2023-11-01T00:40:33.729Z,100.00
2023-11-01T00:43:02.062Z,100.00
2023-11-01T00:45:29.873Z,100.00
2023-11-01T00:47:57.752Z,100.00
2023-11-01T00:50:24.572Z,100.00
2023-11-01T00:52:52.353Z,100.00
2023-11-01T00:55:20.276Z,100.00
2023-11-01T00:57:49.727Z,100.00
2023-11-01T01:00:17.674Z,100.00
2023-11-01T01:02:45.871Z,100.00
2023-11-01T01:05:14.227Z,100.00
2023-11-01T01:07:42.288Z,100.00
2023-11-01T01:10:10.483Z,100.00
2023-11-01T01:12:38.705Z,100.00
2023-11-01T01:15:07.300Z,100.00
2023-11-01T01:17:35.885Z,100.00
2023-11-01T01:20:04.505Z,100.00
2023-11-01T01:22:32.211Z,100.00
2023-11-01T01:25:00.239Z,100.00
2023-11-01T01:27:27.951Z,100.00
2023-11-01T01:29:55.945Z,100.00
2023-11-01T01:32:23.853Z,100.00
2023-11-01T01:34:52.083Z,100.00
2023-11-01T01:37:20.104Z,100.00
2023-11-01T01:39:48.172Z,100.00
2023-11-01T01:42:16.474Z,100.00
2023-11-01T01:44:44.549Z,100.00
2023-11-01T01:47:11.793Z,100.00
2023-11-01T01:49:45.317Z,100.00
2023-11-01T01:52:14.287Z,100.00
2023-11-01T01:54:41.998Z,100.00
2023-11-01T01:57:11.071Z,100.00
2023-11-01T01:59:39.885Z,100.00
2023-11-01T02:02:09.533Z,100.00
2023-11-01T02:04:37.564Z,100.00
2023-11-01T02:07:06.035Z,100.00
2023-11-01T02:09:34.282Z,100.00
2023-11-01T02:12:02.469Z,100.00
2023-11-01T02:14:30.270Z,100.00
2023-11-01T02:16:58.541Z,100.00
2023-11-01T02:19:26.689Z,100.00
2023-11-01T02:21:54.438Z,100.00
2023-11-01T02:24:22.341Z,100.00
2023-11-01T02:26:50.313Z,100.00
2023-11-01T02:29:18.195Z,100.00
2023-11-01T02:31:46.432Z,100.00
2023-11-01T02:34:14.279Z,100.00
2023-11-01T02:36:44.601Z,100.00
2023-11-01T02:39:12.824Z,100.00
2023-11-01T02:41:40.689Z,100.00
2023-11-01T02:44:12.105Z,100.00
2023-11-01T02:46:38.881Z,100.00
2023-11-01T02:49:06.861Z,100.00
2023-11-01T02:51:34.802Z,100.00
2023-11-01T02:54:02.884Z,100.00
2023-11-01T02:56:30.983Z,100.00
2023-11-01T02:58:58.721Z,100.00
2023-11-01T03:01:27.637Z,100.00
2023-11-01T03:03:54.650Z,100.00
2023-11-01T03:06:22.482Z,100.00
2023-11-01T03:08:51.718Z,100.00
2023-11-01T03:11:19.748Z,100.00
2023-11-01T03:13:47.836Z,100.00
2023-11-01T03:16:17.013Z,100.00
2023-11-01T03:18:46.083Z,100.00
2023-11-01T03:21:14.013Z,100.00
2023-11-01T03:23:42.073Z,100.00
2023-11-01T03:26:09.886Z,100.00
2023-11-01T03:28:38.113Z,100.00
2023-11-01T03:31:06.188Z,100.00
2023-11-01T03:33:32.966Z,100.00
2023-11-01T03:36:00.629Z,100.00
2023-11-01T03:38:28.710Z,100.00
2023-11-01T03:40:56.683Z,100.00
2023-11-01T03:43:25.217Z,100.00
2023-11-01T03:45:53.437Z,100.00
2023-11-01T03:48:21.537Z,100.00
2023-11-01T03:50:48.707Z,100.00
2023-11-01T03:53:16.783Z,100.00
2023-11-01T03:55:44.666Z,100.00
2023-11-01T03:58:12.628Z,100.00
2023-11-01T04:00:40.514Z,100.00
2023-11-01T04:03:09.095Z,100.00
2023-11-01T04:05:38.266Z,100.00
2023-11-01T04:08:06.495Z,100.00
2023-11-01T04:10:33.190Z,100.00
2023-11-01T04:13:01.188Z,100.00
2023-11-01T04:15:28.987Z,100.00
2023-11-01T04:17:57.272Z,100.00
2023-11-01T04:20:23.995Z,100.00
2023-11-01T04:22:52.940Z,100.00
2023-11-01T04:25:20.802Z,100.00
2023-11-01T04:27:49.415Z,100.00
2023-11-01T04:30:17.758Z,100.00
2023-11-01T04:32:45.778Z,100.00
2023-11-01T04:35:14.300Z,100.00
2023-11-01T04:37:43.670Z,100.00
2023-11-01T04:40:14.577Z,100.00
2023-11-01T04:42:46.087Z,100.00
2023-11-01T04:45:14.199Z,100.00
2023-11-01T04:47:44.597Z,100.00
2023-11-01T04:50:12.425Z,100.00
2023-11-01T04:52:42.096Z,100.00
2023-11-01T04:55:11.828Z,100.00
2023-11-01T04:57:40.298Z,100.00
2023-11-01T05:00:10.569Z,100.00
2023-11-01T05:02:42.163Z,100.00
2023-11-01T05:05:10.204Z,100.00
2023-11-01T05:07:39.337Z,100.00
2023-11-01T05:10:06.635Z,100.00
2023-11-01T05:12:34.727Z,100.00
2023-11-01T05:15:02.822Z,100.00
2023-11-01T05:17:31.500Z,100.00
2023-11-01T05:19:59.314Z,100.00
2023-11-01T05:22:27.437Z,100.00
2023-11-01T05:24:55.247Z,100.00
2023-11-01T05:27:23.275Z,100.00
2023-11-01T05:29:51.476Z,100.00
2023-11-01T05:32:19.850Z,100.00
2023-11-01T05:34:49.603Z,100.00
2023-11-01T05:37:16.274Z,100.00
2023-11-01T05:39:45.105Z,100.00
2023-11-01T05:42:12.974Z,100.00
2023-11-01T05:44:42.631Z,100.00
2023-11-01T05:47:10.951Z,100.00
2023-11-01T05:49:37.954Z,100.00
2023-11-01T05:52:05.080Z,100.00
2023-11-01T05:54:36.315Z,100.00
2023-11-01T05:57:04.995Z,100.00
2023-11-01T05:59:33.174Z,100.00
2023-11-01T06:02:01.064Z,100.00
2023-11-01T06:04:29.983Z,100.00
2023-11-01T06:06:58.672Z,100.00
2023-11-01T06:09:26.078Z,100.00
2023-11-01T06:11:52.803Z,100.00
2023-11-01T06:14:22.030Z,100.00
2023-11-01T06:16:48.799Z,100.00
2023-11-01T06:19:15.520Z,100.00
2023-11-01T06:21:42.326Z,100.00
2023-11-01T06:24:09.416Z,100.00
2023-11-01T06:26:37.120Z,100.00
2023-11-01T06:29:04.536Z,100.00
2023-11-01T06:31:31.279Z,100.00
2023-11-01T06:33:58.042Z,100.00
2023-11-01T06:36:24.928Z,100.00
2023-11-01T06:38:51.648Z,100.00
2023-11-01T06:41:19.417Z,100.00
2023-11-01T06:43:47.856Z,100.00
2023-11-01T06:46:15.630Z,100.00
2023-11-01T06:48:47.316Z,100.00
2023-11-01T06:51:16.305Z,100.00
2023-11-01T06:53:44.664Z,100.00
2023-11-01T06:56:12.530Z,100.00
2023-11-01T06:58:40.750Z,99.60
2023-11-01T07:01:09.066Z,99.44
2023-11-01T07:03:39.761Z,98.98
2023-11-01T07:06:11.694Z,98.70
2023-11-01T07:08:46.652Z,98.26
2023-11-01T07:11:16.532Z,98.13
2023-11-01T07:13:49.147Z,98.01
2023-11-01T07:16:20.241Z,97.96
2023-11-01T07:18:50.649Z,98.15
2023-11-01T07:21:41.647Z,98.11
2023-11-01T07:24:11.195Z,97.62
2023-11-01T07:26:41.418Z,97.03
2023-11-01T07:29:12.863Z,96.70
2023-11-01T07:31:48.960Z,96.76
2023-11-01T07:34:20.746Z,96.98
2023-11-01T07:36:51.299Z,96.88
2023-11-01T07:39:22.281Z,96.85
2023-11-01T07:41:58.036Z,96.31
2023-11-01T07:44:28.172Z,95.18
2023-11-01T07:47:01.664Z,94.96
2023-11-01T07:49:29.343Z,94.51
2023-11-01T07:51:56.858Z,94.95
2023-11-01T07:54:25.102Z,93.85
2023-11-01T07:56:53.788Z,92.74
2023-11-01T07:59:33.269Z,91.17
2023-11-01T08:02:02.230Z,90.60
2023-11-01T08:04:30.515Z,90.14
2023-11-01T08:07:02.592Z,89.27
2023-11-01T08:09:33.104Z,88.69
2023-11-01T08:12:04.119Z,88.60
2023-11-01T08:14:34.527Z,87.44
2023-11-01T08:17:02.692Z,86.91
2023-11-01T08:19:33.040Z,87.49
2023-11-01T08:22:01.113Z,87.16
2023-11-01T08:24:29.423Z,86.24
2023-11-01T08:26:57.443Z,85.72
2023-11-01T08:29:25.392Z,85.47
2023-11-01T08:31:55.585Z,85.03
2023-11-01T08:34:24.092Z,85.01
2023-11-01T08:36:51.079Z,85.44
2023-11-01T08:39:19.309Z,85.87
2023-11-01T08:41:47.152Z,85.88
2023-11-01T08:44:15.144Z,84.57
2023-11-01T08:46:42.933Z,84.65
2023-11-01T08:49:12.676Z,85.57
2023-11-01T08:51:50.299Z,84.39
2023-11-01T08:54:18.037Z,84.46
2023-11-01T08:56:46.114Z,84.61
2023-11-01T08:59:14.245Z,84.24
2023-11-01T09:01:42.218Z,84.16
2023-11-01T09:04:10.600Z,84.15
2023-11-01T09:06:39.745Z,83.60
2023-11-01T09:09:08.204Z,82.90
2023-11-01T09:11:36.485Z,82.42
2023-11-01T09:14:04.429Z,82.13
2023-11-01T09:16:33.202Z,81.12
2023-11-01T09:19:00.703Z,81.15
2023-11-01T09:21:28.395Z,81.11
2023-11-01T09:23:56.494Z,80.47
2023-11-01T09:26:25.220Z,79.82
2023-11-01T09:28:53.008Z,79.67
2023-11-01T09:31:23.337Z,79.17
2023-11-01T09:33:51.650Z,78.57
2023-11-01T09:36:19.534Z,78.12
2023-11-01T09:38:47.815Z,78.12
2023-11-01T09:41:21.406Z,78.91
2023-11-01T09:43:52.826Z,78.26
2023-11-01T09:46:21.093Z,77.27
2023-11-01T09:48:48.068Z,77.33
2023-11-01T09:51:18.063Z,77.40
2023-11-01T09:53:46.258Z,77.89
2023-11-01T09:56:14.386Z,77.70
2023-11-01T09:58:42.875Z,77.97
2023-11-01T10:01:11.369Z,77.72
2023-11-01T10:03:39.576Z,77.43
2023-11-01T10:06:09.159Z,77.06
2023-11-01T10:08:36.940Z,76.02
2023-11-01T10:11:05.246Z,75.85
2023-11-01T10:13:34.733Z,75.54
2023-11-01T10:16:02.840Z,75.34
2023-11-01T10:18:30.939Z,75.68
2023-11-01T10:20:58.978Z,76.33
2023-11-01T10:23:30.048Z,76.70
2023-11-01T10:25:58.166Z,76.06
2023-11-01T10:28:26.268Z,75.65
2023-11-01T10:30:55.067Z,75.50
2023-11-01T10:33:23.489Z,75.46
2023-11-01T10:36:02.101Z,75.46
2023-11-01T10:38:31.629Z,75.82
2023-11-01T10:41:04.979Z,75.97
2023-11-01T10:43:33.048Z,75.60
2023-11-01T10:46:04.199Z,75.13
2023-11-01T10:48:32.051Z,75.43
2023-11-01T10:50:59.752Z,75.39
2023-11-01T10:53:26.682Z,75.75
2023-11-01T10:55:54.987Z,76.44
2023-11-01T10:58:31.040Z,76.84
2023-11-01T11:01:51.482Z,77.32
2023-11-01T11:04:42.936Z,76.94
2023-11-01T11:07:46.330Z,76.43
2023-11-01T11:10:38.031Z,76.84
2023-11-01T11:13:20.341Z,76.53
2023-11-01T11:16:10.427Z,76.32
2023-11-01T11:18:48.665Z,76.83
2023-11-01T11:21:56.857Z,76.97
2023-11-01T11:24:46.020Z,76.32
2023-11-01T11:27:50.482Z,75.44
2023-11-01T11:31:11.617Z,75.03
2023-11-01T11:33:51.690Z,75.13
2023-11-01T11:36:22.970Z,74.84
2023-11-01T11:38:52.603Z,73.99
2023-11-01T11:41:29.669Z,73.52
2023-11-01T11:44:26.942Z,73.00
2023-11-01T11:46:56.408Z,73.63
2023-11-01T11:49:34.167Z,74.02
2023-11-01T11:52:13.283Z,74.17
2023-11-01T11:54:44.590Z,73.75
2023-11-01T11:57:17.450Z,73.13
2023-11-01T11:59:44.384Z,73.35
2023-11-01T12:02:18.066Z,72.90
2023-11-01T12:04:46.499Z,73.15
2023-11-01T12:07:20.314Z,72.89
2023-11-01T12:09:54.024Z,73.83
2023-11-01T12:12:25.708Z,74.69
2023-11-01T12:15:03.049Z,74.29
2023-11-01T12:17:34.110Z,73.96
2023-11-01T12:20:04.471Z,73.38
2023-11-01T12:22:38.600Z,73.48
2023-11-01T12:25:07.116Z,73.63
2023-11-01T12:27:35.303Z,73.68
2023-11-01T12:30:06.489Z,73.79
2023-11-01T12:32:39.911Z,74.22
2023-11-01T12:35:08.434Z,74.06
2023-11-01T12:37:37.407Z,74.18
2023-11-01T12:40:14.773Z,73.40
2023-11-01T12:42:48.594Z,73.47
2023-11-01T12:45:17.999Z,73.56
2023-11-01T12:47:53.481Z,73.70
2023-11-01T12:50:22.291Z,74.47
2023-11-01T12:52:50.618Z,74.04
2023-11-01T12:55:19.452Z,73.37
2023-11-01T12:57:55.128Z,72.70
2023-11-01T13:00:29.244Z,72.44
2023-11-01T13:03:03.517Z,72.02
2023-11-01T13:05:31.892Z,71.99
2023-11-01T13:08:02.338Z,71.67
2023-11-01T13:10:29.017Z,71.59
2023-11-01T13:12:56.891Z,71.38
2023-11-01T13:15:26.424Z,71.48
2023-11-01T13:17:56.824Z,71.85
2023-11-01T13:20:25.019Z,72.05
2023-11-01T13:22:54.942Z,71.51
2023-11-01T13:25:22.963Z,71.52
2023-11-01T13:27:51.043Z,71.68
2023-11-01T13:30:17.742Z,71.99
2023-11-01T13:32:45.755Z,71.89
2023-11-01T13:35:14.052Z,72.07
2023-11-01T13:37:44.679Z,71.73
2023-11-01T13:40:12.609Z,70.75
2023-11-01T13:42:40.695Z,70.53
2023-11-01T13:45:09.620Z,70.72
2023-11-01T13:47:37.482Z,70.84
2023-11-01T13:50:04.681Z,70.57
2023-11-01T13:52:32.513Z,70.57
2023-11-01T13:54:59.443Z,70.79
2023-11-01T13:57:28.567Z,71.40
2023-11-01T13:59:56.527Z,72.02
2023-11-01T14:02:24.820Z,72.66
2023-11-01T14:04:53.617Z,73.35
2023-11-01T14:07:21.773Z,73.98
2023-11-01T14:09:52.474Z,74.22
2023-11-01T14:12:20.636Z,74.78
2023-11-01T14:14:48.572Z,75.28
2023-11-01T14:17:16.708Z,75.75
2023-11-01T14:19:47.296Z,76.03
2023-11-01T14:22:15.417Z,76.18
2023-11-01T14:24:46.386Z,76.38
2023-11-01T14:27:14.613Z,77.18
2023-11-01T14:29:43.057Z,76.99
2023-11-01T14:32:14.783Z,76.96
2023-11-01T14:34:43.326Z,77.07
2023-11-01T14:37:11.103Z,77.52
2023-11-01T14:39:40.272Z,78.04
2023-11-01T14:42:10.383Z,78.69
2023-11-01T14:44:40.844Z,78.82
2023-11-01T14:47:10.919Z,79.12
2023-11-01T14:49:39.010Z,79.41
2023-11-01T14:52:06.864Z,79.67
2023-11-01T14:54:34.854Z,79.81
2023-11-01T14:57:01.806Z,80.30
2023-11-01T14:59:29.883Z,80.81
2023-11-01T15:01:57.712Z,81.18
2023-11-01T15:04:25.807Z,81.39
2023-11-01T15:06:52.464Z,81.70
2023-11-01T15:09:21.876Z,81.96
2023-11-01T15:11:52.514Z,82.02
2023-11-01T15:14:20.451Z,82.19
2023-11-01T15:16:50.800Z,82.68
2023-11-01T15:19:18.619Z,83.08
2023-11-01T15:21:46.930Z,83.74
2023-11-01T15:24:15.127Z,84.03
2023-11-01T15:26:41.943Z,84.26
2023-11-01T15:29:12.850Z,84.89
2023-11-01T15:31:41.067Z,85.33
2023-11-01T15:34:09.730Z,85.66
2023-11-01T15:36:38.149Z,86.07
2023-11-01T15:39:06.235Z,86.72
2023-11-01T15:41:34.594Z,87.11
2023-11-01T15:44:02.782Z,87.18
2023-11-01T15:46:30.582Z,87.93
2023-11-01T15:48:57.265Z,88.03
2023-11-01T15:51:27.509Z,88.32
2023-11-01T15:53:55.752Z,89.01
2023-11-01T15:56:23.823Z,89.46
2023-11-01T15:58:51.702Z,89.81
2023-11-01T16:01:21.126Z,90.26
2023-11-01T16:03:49.478Z,90.36
2023-11-01T16:06:17.845Z,90.48
2023-11-01T16:08:46.300Z,90.50
2023-11-01T16:11:14.356Z,90.82
2023-11-01T16:13:42.941Z,90.99
2023-11-01T16:16:11.675Z,90.86
2023-11-01T16:18:39.516Z,90.81
2023-11-01T16:21:07.527Z,90.76
2023-11-01T16:23:35.730Z,90.89
2023-11-01T16:26:04.219Z,91.00
2023-11-01T16:28:32.011Z,91.44
2023-11-01T16:31:00.381Z,91.15
2023-11-01T16:33:28.260Z,91.36
2023-11-01T16:35:56.408Z,91.26
2023-11-01T16:38:25.933Z,91.69
2023-11-01T16:40:54.101Z,92.13
2023-11-01T16:43:22.196Z,92.27
2023-11-01T16:45:50.432Z,92.24
2023-11-01T16:48:18.305Z,92.65
2023-11-01T16:50:46.131Z,92.56
2023-11-01T16:53:14.236Z,92.36
2023-11-01T16:55:41.998Z,92.35
2023-11-01T16:58:09.885Z,92.40
2023-11-01T17:00:39.019Z,92.45
2023-11-01T17:03:09.528Z,92.38
2023-11-01T17:43:55.025Z,91.51
2023-11-01T17:46:26.070Z,91.41
2023-11-01T17:48:55.360Z,91.43
2023-11-01T17:51:23.504Z,91.65
2023-11-01T17:53:53.582Z,92.12
2023-11-01T17:56:21.337Z,92.31
2023-11-01T17:58:56.277Z,92.44
2023-11-01T18:01:26.689Z,92.72
2023-11-01T18:03:56.061Z,92.91
2023-11-01T18:06:24.795Z,92.86
2023-11-01T18:08:53.227Z,92.92
2023-11-01T18:11:22.977Z,92.94
2023-11-01T18:13:50.805Z,92.41
2023-11-01T18:16:29.084Z,92.03
2023-11-01T18:18:58.362Z,92.28
2023-11-01T18:21:31.945Z,92.34
2023-11-01T18:24:15.455Z,92.86
2023-11-01T18:26:43.855Z,92.63
2023-11-01T18:29:12.183Z,92.98
2023-11-01T18:31:48.173Z,93.10
2023-11-01T18:34:25.144Z,92.87
2023-11-01T18:36:54.318Z,92.99
2023-11-01T18:39:24.630Z,93.02
2023-11-01T18:41:52.762Z,92.86
2023-11-01T18:44:27.491Z,93.17
2023-11-01T18:46:58.883Z,93.40
2023-11-01T18:49:47.593Z,93.71
2023-11-01T18:52:18.208Z,93.45
2023-11-01T18:54:48.226Z,93.72
2023-11-01T18:57:23.805Z,93.60
2023-11-01T18:59:51.714Z,93.48
2023-11-01T19:02:49.519Z,93.54
2023-11-01T19:05:23.204Z,93.13
2023-11-01T19:08:01.620Z,93.05
2023-11-01T19:10:34.725Z,93.27
2023-11-01T19:13:03.437Z,93.43
2023-11-01T19:15:39.086Z,93.56
2023-11-01T19:18:34.281Z,93.91
2023-11-01T19:21:04.069Z,94.01
2023-11-01T19:23:35.999Z,93.99
2023-11-01T19:26:05.944Z,93.79
2023-11-01T19:28:38.666Z,93.66
2023-11-01T19:31:10.690Z,93.51
2023-11-01T19:33:39.571Z,93.58
2023-11-01T19:36:14.085Z,93.70
2023-11-01T19:38:44.823Z,93.80
2023-11-01T19:41:16.790Z,93.46
2023-11-01T19:43:46.396Z,93.20
2023-11-01T19:46:14.694Z,92.96
2023-11-01T19:48:43.076Z,92.98
2023-11-01T19:51:10.868Z,93.13
2023-11-01T19:53:38.660Z,93.05
2023-11-01T19:56:15.837Z,92.84
2023-11-01T19:58:49.269Z,92.77
2023-11-01T20:01:18.812Z,92.90
2023-11-01T20:03:59.301Z,92.82
2023-11-01T20:09:11.294Z,92.55
2023-11-01T20:11:40.291Z,92.78
2023-11-01T20:14:08.034Z,93.03
2023-11-01T20:16:36.222Z,93.18
2023-11-01T20:19:04.505Z,92.81
2023-11-01T20:21:33.813Z,92.71
2023-11-01T20:24:01.377Z,92.81
2023-11-01T20:26:30.590Z,93.11
2023-11-01T20:29:00.478Z,93.41
2023-11-01T20:31:29.785Z,93.46
2023-11-01T20:33:56.489Z,93.22
2023-11-01T20:36:25.959Z,93.33
2023-11-01T20:38:54.939Z,93.11
2023-11-01T20:41:24.286Z,93.15
2023-11-01T20:43:52.191Z,92.98
2023-11-01T20:46:23.360Z,92.67
2023-11-01T20:48:52.021Z,92.48
2023-11-01T20:51:26.181Z,92.73
2023-11-01T20:53:55.198Z,92.82
2023-11-01T20:56:23.527Z,92.75
2023-11-01T20:58:51.694Z,92.65
2023-11-01T21:01:20.182Z,92.88
2023-11-01T21:03:46.968Z,92.71
2023-11-01T21:06:15.251Z,92.52
2023-11-01T21:08:43.017Z,92.73
2023-11-01T21:11:09.731Z,93.31
2023-11-01T21:13:37.736Z,93.31
2023-11-01T21:16:07.051Z,93.13
2023-11-01T21:18:35.236Z,93.06
2023-11-01T21:21:04.153Z,92.63
2023-11-01T21:23:32.550Z,92.61
2023-11-01T21:26:00.732Z,92.29
2023-11-01T21:28:28.889Z,92.45
2023-11-01T21:31:00.460Z,92.75
2023-11-01T21:33:28.579Z,92.73
2023-11-01T21:35:56.514Z,92.89
2023-11-01T21:38:25.271Z,92.77
2023-11-01T21:40:52.944Z,92.76
2023-11-01T21:43:21.761Z,92.64
2023-11-01T21:45:56.597Z,92.59
2023-11-01T21:48:28.512Z,92.43
2023-11-01T21:51:00.539Z,92.30
2023-11-01T21:53:31.101Z,92.15
2023-11-01T21:56:01.932Z,92.23
2023-11-01T21:58:32.443Z,92.25
2023-11-01T22:01:05.393Z,91.90
2023-11-01T22:03:48.635Z,91.92
2023-11-01T22:06:29.317Z,91.81
2023-11-01T22:09:16.917Z,91.73
2023-11-01T22:11:52.384Z,91.61
2023-11-01T22:14:31.358Z,91.64
2023-11-01T22:17:03.996Z,91.61
2023-11-01T22:19:42.763Z,91.97
2023-11-01T22:22:24.775Z,92.20
2023-11-01T22:24:54.535Z,92.39
2023-11-01T22:27:29.552Z,92.19
2023-11-01T22:29:58.241Z,92.19
2023-11-01T22:32:29.506Z,92.07
2023-11-01T22:34:57.348Z,91.73
2023-11-01T22:37:26.958Z,91.95
2023-11-01T22:39:56.668Z,91.83
2023-11-01T22:42:31.018Z,91.79
2023-11-01T22:45:03.734Z,91.77
2023-11-01T22:47:32.108Z,91.71
2023-11-01T22:50:00.665Z,91.85
2023-11-01T22:52:28.824Z,91.85
2023-11-01T22:54:56.823Z,91.65
2023-11-01T22:57:24.928Z,91.60
2023-11-01T22:59:52.784Z,91.77
2023-11-01T23:02:21.172Z,91.81
2023-11-01T23:04:50.330Z,91.82
2023-11-01T23:07:17.103Z,92.12
2023-11-01T23:09:44.752Z,92.27
2023-11-01T23:12:13.623Z,92.40
2023-11-01T23:14:41.852Z,92.08
2023-11-01T23:17:11.098Z,92.16
2023-11-01T23:19:39.741Z,92.47
2023-11-01T23:22:07.692Z,92.18
2023-11-01T23:24:34.900Z,92.19
2023-11-01T23:27:06.036Z,92.15
2023-11-01T23:29:35.911Z,91.85
2023-11-01T23:32:12.684Z,91.64
2023-11-01T23:34:54.500Z,91.59
2023-11-01T23:37:36.116Z,91.77
2023-11-01T23:40:12.111Z,91.62
2023-11-01T23:42:39.103Z,91.59
2023-11-01T23:45:46.921Z,91.52
2023-11-01T23:48:17.288Z,91.26
2023-11-01T23:50:45.292Z,91.74
2023-11-01T23:53:21.699Z,92.01
2023-11-01T23:55:52.206Z,91.99
2023-11-01T23:58:38.402Z,91.56
